Time;durP1;ratioP1;P1;durP2;ratioP2;P2;SDS_P1;SDS_P2;PMS_P1;PMS_P2;Temp;Humidity;BMP_temperature;BMP_pressure;BME280_temperature;BME280_humidity;BME280_pressure;Samples;Min_cycle;Max_cycle;Signal;HPM_P1;HPM_P2
2021/06/18 00:01:31;;;;;;;5.32;4.80;;;;;;;18.90;87.86;98189.34;5004500;28;20215;-64
2021/06/18 00:03:57;;;;;;;5.60;5.10;;;;;;;18.86;88.88;98188.66;5004411;28;20090;-64
2021/06/18 00:06:22;;;;;;;6.85;4.57;;;;;;;18.79;88.34;98186.44;5004432;28;20094;-64
2021/06/18 00:08:48;;;;;;;4.80;4.20;;;;;;;18.83;88.01;98183.50;5004414;28;20241;-64
2021/06/18 00:11:13;;;;;;;6.72;5.30;;;;;;;18.95;88.34;98188.09;4990832;28;20050;-64
2021/06/18 00:13:39;;;;;;;5.68;5.18;;;;;;;18.78;88.19;98190.06;4984841;28;20019;-64
2021/06/18 00:16:04;;;;;;;5.22;4.70;;;;;;;18.95;87.62;98208.56;4988790;28;20026;-64
2021/06/18 00:18:29;;;;;;;6.93;5.15;;;;;;;19.00;87.64;98218.03;4988841;28;20026;-64
2021/06/18 00:20:55;;;;;;;6.03;4.80;;;;;;;18.89;87.49;98230.28;4988772;28;20030;-64
2021/06/18 00:23:20;;;;;;;9.10;5.00;;;;;;;18.80;87.99;98222.84;4988763;28;20018;-64
2021/06/18 00:25:46;;;;;;;7.47;5.07;;;;;;;18.64;88.17;98235.34;4988731;28;20023;-64
2021/06/18 00:28:14;;;;;;;7.20;5.57;;;;;;;18.58;88.67;98247.19;4988708;28;20030;-64
2021/06/18 00:30:41;;;;;;;6.97;5.90;;;;;;;18.62;89.82;98242.56;4988655;28;20050;-64
2021/06/18 00:33:06;;;;;;;7.30;5.80;;;;;;;18.66;89.82;98233.41;4988614;28;20042;-64
2021/06/18 00:35:33;;;;;;;7.13;6.32;;;;;;;18.73;90.62;98238.31;4988499;28;20023;-64
2021/06/18 00:37:58;;;;;;;8.50;6.10;;;;;;;18.78;90.62;98232.72;4988534;28;20031;-64
2021/06/18 00:40:24;;;;;;;7.53;6.85;;;;;;;18.83;90.81;98235.97;4994912;28;20022;-64
2021/06/18 00:42:49;;;;;;;7.40;6.18;;;;;;;18.87;89.38;98233.06;5007938;28;20210;-64
2021/06/18 00:45:15;;;;;;;6.72;6.00;;;;;;;18.95;89.59;98240.56;5007887;28;20022;-64
2021/06/18 00:47:49;;;;;;;7.05;6.35;;;;;;;18.92;89.41;98251.44;5007958;28;20022;-64
2021/06/18 00:50:17;;;;;;;7.43;5.93;;;;;;;19.04;89.12;98262.25;5007896;28;20023;-64
2021/06/18 00:52:42;;;;;;;7.53;6.20;;;;;;;19.10;88.77;98255.69;4990368;28;20026;-64
2021/06/18 00:55:10;;;;;;;6.30;5.30;;;;;;;19.02;88.10;98263.28;5007700;28;20389;-64
2021/06/18 00:57:36;;;;;;;6.07;5.38;;;;;;;18.93;88.31;98261.16;5007599;28;20026;-64
2021/06/18 01:00:03;;;;;;;8.25;5.88;;;;;;;18.88;88.98;98255.22;5007487;28;20241;-64
2021/06/18 01:02:28;;;;;;;6.38;5.78;;;;;;;18.90;89.01;98258.69;5007713;28;20026;-64
2021/06/18 01:04:54;;;;;;;8.18;6.15;;;;;;;18.87;89.12;98258.84;5007542;28;20126;-64
2021/06/18 01:07:32;;;;;;;8.77;5.95;;;;;;;18.87;89.11;98254.38;4990124;28;20030;-64
2021/06/18 01:10:17;;;;;;;6.60;6.00;;;;;;;18.90;89.59;98256.00;5001990;28;20022;-64
2021/06/18 01:13:29;;;;;;;7.53;5.55;;;;;;;18.96;89.09;98263.66;4987951;28;20089;-64
2021/06/18 01:16:15;;;;;;;8.75;6.15;;;;;;;18.95;89.31;98257.44;4951758;28;20049;-64
2021/06/18 01:18:48;;;;;;;6.97;5.60;;;;;;;19.00;89.57;98259.84;4987853;28;20317;-64
2021/06/18 01:21:18;;;;;;;7.60;5.82;;;;;;;19.06;88.98;98259.50;4987854;28;20018;-64
2021/06/18 01:23:58;;;;;;;10.10;5.30;;;;;;;19.11;88.69;98257.41;4987902;28;20309;-64
2021/06/18 01:26:24;;;;;;;6.28;4.57;;;;;;;19.23;87.63;98259.34;4987493;28;20257;-64
2021/06/18 01:28:52;;;;;;;6.82;4.30;;;;;;;19.28;87.35;98259.97;4987838;28;20022;-64
2021/06/18 01:31:21;;;;;;;4.93;4.43;;;;;;;19.36;86.86;98272.84;4987529;28;20022;-64
2021/06/18 01:33:51;;;;;;;5.97;4.03;;;;;;;19.39;86.54;98254.81;4987457;28;20030;-64
2021/06/18 01:36:19;;;;;;;5.65;3.28;;;;;;;19.53;85.29;98264.66;4987555;28;20078;-64
2021/06/18 01:38:47;;;;;;;4.15;3.30;;;;;;;19.57;84.22;98260.84;4987424;28;20214;-64
2021/06/18 01:41:18;;;;;;;8.07;3.83;;;;;;;19.63;84.08;98261.34;5002332;28;20023;-64
2021/06/18 01:43:44;;;;;;;5.30;3.20;;;;;;;19.65;83.35;98254.09;5006902;28;20221;-64
2021/06/18 01:46:13;;;;;;;4.35;3.10;;;;;;;19.68;82.78;98248.56;5006796;28;20264;-64
2021/06/18 01:48:41;;;;;;;4.30;2.72;;;;;;;19.75;82.03;98260.59;5006756;28;20018;-64
2021/06/18 01:51:08;;;;;;;4.65;2.75;;;;;;;19.78;81.50;98259.56;5006728;28;20049;-64
2021/06/18 01:53:36;;;;;;;6.40;2.50;;;;;;;19.74;81.72;98261.53;5006565;28;20053;-64
2021/06/18 01:56:03;;;;;;;3.00;2.67;;;;;;;19.79;80.48;98261.25;5006582;28;20313;-64
2021/06/18 01:58:31;;;;;;;3.40;2.38;;;;;;;19.81;80.43;98260.22;5006442;28;20029;-64
2021/06/18 02:00:57;;;;;;;2.97;2.50;;;;;;;19.77;80.46;98258.69;5006353;28;20034;-64
2021/06/18 02:03:27;;;;;;;4.05;2.47;;;;;;;19.78;80.58;98255.06;5006494;28;20253;-64
2021/06/18 02:05:57;;;;;;;3.08;2.50;;;;;;;19.76;79.72;98256.09;5006725;28;20057;-64
2021/06/18 02:08:23;;;;;;;5.47;2.67;;;;;;;19.75;79.54;98255.25;5006582;28;20259;-64
2021/06/18 02:10:51;;;;;;;2.55;2.20;;;;;;;19.72;79.47;98255.44;4992136;28;20214;-64
2021/06/18 02:13:18;;;;;;;2.70;2.50;;;;;;;19.68;80.80;98253.06;4986802;28;20026;-64
2021/06/18 02:15:47;;;;;;;2.63;2.40;;;;;;;19.65;79.01;98256.75;4986721;28;20029;-64
2021/06/18 02:18:17;;;;;;;4.03;2.17;;;;;;;19.64;79.20;98263.06;4986950;28;20029;-64
2021/06/18 02:20:45;;;;;;;3.83;2.47;;;;;;;19.58;79.02;98258.09;4986926;28;20313;-64
2021/06/18 02:23:11;;;;;;;3.13;2.10;;;;;;;19.55;80.06;98252.94;4986664;28;20034;-64
2021/06/18 02:25:38;;;;;;;3.65;2.08;;;;;;;19.49;79.64;98253.31;4986822;28;20014;-64
2021/06/18 02:28:05;;;;;;;4.28;2.30;;;;;;;19.44;79.61;98252.75;4986531;28;20029;-64
2021/06/18 02:30:32;;;;;;;3.47;2.00;;;;;;;19.44;79.22;98254.56;4986462;28;20030;-64
2021/06/18 02:32:59;;;;;;;3.05;1.90;;;;;;;19.38;79.16;98253.13;4986422;28;20038;-64
2021/06/18 02:35:26;;;;;;;2.42;1.80;;;;;;;19.33;79.22;98247.19;4986307;28;20022;-64
2021/06/18 02:37:51;;;;;;;2.42;1.60;;;;;;;19.31;79.75;98246.44;4985747;28;20066;-64
2021/06/18 02:40:17;;;;;;;5.60;1.98;;;;;;;19.28;79.26;98249.28;4996051;28;20022;-64
2021/06/18 02:42:43;;;;;;;2.10;1.90;;;;;;;19.21;79.53;98258.59;5005542;28;20014;-64
2021/06/18 02:45:10;;;;;;;3.42;1.70;;;;;;;19.18;79.98;98250.75;5005687;28;20018;-64
2021/06/18 02:47:55;;;;;;;2.15;1.88;;;;;;;19.09;80.77;98251.31;5005800;28;20018;-64
2021/06/18 02:50:36;;;;;;;2.15;1.90;;;;;;;19.05;79.42;98250.63;5005619;28;20022;-64
2021/06/18 02:53:13;;;;;;;2.20;1.80;;;;;;;19.03;80.01;98249.00;5005540;28;20022;-64
2021/06/18 02:55:47;;;;;;;3.20;1.88;;;;;;;19.02;80.19;98257.97;5005649;28;20034;-64
2021/06/18 02:58:39;;;;;;;2.55;1.80;;;;;;;19.01;79.51;98251.75;5005422;28;20092;-64
2021/06/18 03:01:06;;;;;;;3.92;2.00;;;;;;;19.03;80.09;98254.34;5004754;28;20109;-64
2021/06/18 03:03:40;;;;;;;3.25;1.90;;;;;;;19.04;79.05;98256.91;5005307;28;20191;-64
2021/06/18 03:06:07;;;;;;;4.78;1.80;;;;;;;18.99;79.54;98253.66;5005370;28;20212;-64
2021/06/18 03:08:46;;;;;;;2.30;1.80;;;;;;;18.97;79.27;98254.69;5005261;28;20046;-64
2021/06/18 03:11:12;;;;;;;3.40;1.77;;;;;;;18.96;79.42;98253.81;4988222;28;20058;-64
2021/06/18 03:13:43;;;;;;;1.77;1.50;;;;;;;19.00;78.71;98249.19;4985644;28;20034;-64
2021/06/18 03:16:10;;;;;;;2.00;1.60;;;;;;;18.99;79.32;98255.47;4985684;28;20038;-64
2021/06/18 03:18:38;;;;;;;2.63;1.90;;;;;;;18.90;80.21;98253.34;4985639;28;20110;-64
2021/06/18 03:21:07;;;;;;;4.55;1.95;;;;;;;18.80;79.16;98257.50;4985589;28;20031;-64
2021/06/18 03:23:33;;;;;;;3.42;2.03;;;;;;;18.74;80.37;98249.84;4985523;28;20221;-64
2021/06/18 03:26:02;;;;;;;2.00;1.80;;;;;;;18.67;81.84;98257.31;4985499;28;20033;-64
2021/06/18 03:28:28;;;;;;;2.63;1.67;;;;;;;18.63;81.49;98261.13;4985442;28;20037;-64
2021/06/18 03:30:53;;;;;;;2.95;1.77;;;;;;;18.55;80.95;98262.50;4985705;28;20050;-64
2021/06/18 03:33:21;;;;;;;3.28;1.80;;;;;;;18.45;81.72;98256.84;4985419;28;20030;-64
2021/06/18 03:35:49;;;;;;;1.98;1.60;;;;;;;18.45;81.15;98264.00;4985496;28;20191;-64
2021/06/18 03:38:17;;;;;;;2.65;1.80;;;;;;;18.39;81.76;98270.53;4985352;28;20077;-64
2021/06/18 03:40:43;;;;;;;2.92;2.10;;;;;;;18.38;81.88;98265.28;5000387;28;20022;-64
2021/06/18 03:43:09;;;;;;;3.60;1.80;;;;;;;18.36;82.25;98262.72;5004946;28;20030;-64
2021/06/18 03:45:38;;;;;;;1.65;1.55;;;;;;;18.30;82.85;98264.81;5004683;28;20360;-64
2021/06/18 03:48:05;;;;;;;2.28;1.80;;;;;;;18.24;82.98;98251.81;5004619;28;20324;-64
2021/06/18 03:50:33;;;;;;;2.03;1.83;;;;;;;18.29;82.95;98260.44;5003987;28;20026;-64
2021/06/18 03:53:00;;;;;;;2.63;1.80;;;;;;;18.32;83.45;98257.59;5004579;28;20033;-64
2021/06/18 03:55:26;;;;;;;5.53;1.90;;;;;;;18.32;83.20;98252.28;5004489;28;20033;-64
2021/06/18 03:57:52;;;;;;;3.42;1.88;;;;;;;18.45;80.90;98253.31;4987056;28;20026;-64
2021/06/18 04:00:18;;;;;;;2.92;1.80;;;;;;;18.63;79.85;98249.59;5004313;28;20049;-64
2021/06/18 04:02:45;;;;;;;2.63;1.60;;;;;;;18.80;80.05;98255.66;5004488;28;20380;-64
2021/06/18 04:05:20;;;;;;;2.55;1.80;;;;;;;18.88;79.70;98249.88;5004439;28;20018;-64
2021/06/18 04:07:48;;;;;;;2.72;1.92;;;;;;;19.02;79.71;98244.63;5004466;28;20044;-64
2021/06/18 04:10:16;;;;;;;5.97;2.00;;;;;;;19.08;80.57;98241.59;4993065;28;20022;-64
2021/06/18 04:12:42;;;;;;;7.18;1.75;;;;;;;19.19;80.82;98240.00;4984912;28;20054;-64
2021/06/18 04:15:08;;;;;;;3.22;1.95;;;;;;;19.36;79.98;98236.31;4984850;28;20314;-64
2021/06/18 04:17:33;;;;;;;4.35;1.95;;;;;;;19.40;79.15;98226.34;4987112;28;20073;-64
2021/06/18 04:20:00;;;;;;;3.05;1.88;;;;;;;19.54;77.22;98229.88;5004304;28;20025;-64
2021/06/18 04:22:30;;;;;;;2.65;1.70;;;;;;;19.75;79.88;98231.22;5004257;28;20082;-64
2021/06/18 04:24:57;;;;;;;4.05;1.85;;;;;;;19.87;80.56;98229.59;5004244;28;20022;-64
2021/06/18 04:27:22;;;;;;;1.70;1.60;;;;;;;20.02;79.60;98225.94;5004225;28;20026;-64
2021/06/18 04:29:47;;;;;;;1.98;1.80;;;;;;;20.08;78.59;98214.88;5004272;28;20380;-64
2021/06/18 04:32:13;;;;;;;3.25;1.77;;;;;;;20.40;76.61;98201.19;5004183;28;20018;-64
2021/06/18 04:34:38;;;;;;;3.53;2.22;;;;;;;20.76;74.16;98196.06;5004111;28;20093;-64
2021/06/18 04:37:04;;;;;;;4.18;1.50;;;;;;;21.38;74.73;98190.97;5004137;28;20024;-64
2021/06/18 04:39:29;;;;;;;2.92;1.80;;;;;;;21.73;74.68;98186.66;4999660;28;20025;-64
2021/06/18 04:41:55;;;;;;;2.90;1.70;;;;;;;21.95;72.73;98173.44;4984672;28;20029;-64
2021/06/18 04:44:21;;;;;;;2.22;1.90;;;;;;;22.14;70.75;98168.47;4984633;28;20023;-64
2021/06/18 04:46:47;;;;;;;1.60;1.42;;;;;;;22.16;68.82;98166.53;4984872;28;20317;-64
2021/06/18 04:49:13;;;;;;;2.10;1.30;;;;;;;21.85;69.84;98167.91;4984557;28;20042;-64
2021/06/18 04:51:39;;;;;;;1.77;1.60;;;;;;;21.95;71.50;98168.09;4984638;28;20057;-64
2021/06/18 04:54:06;;;;;;;2.65;1.70;;;;;;;22.42;68.10;98165.47;4984451;28;20029;-64
2021/06/18 04:56:31;;;;;;;3.30;1.63;;;;;;;22.89;68.51;98165.47;4984529;28;20023;-64
2021/06/18 04:58:58;;;;;;;2.17;1.50;;;;;;;22.75;67.46;98160.31;4984543;28;20061;-64
2021/06/18 05:01:23;;;;;;;4.72;1.63;;;;;;;22.34;67.83;98158.00;4987023;28;20027;-64
2021/06/18 05:03:49;;;;;;;5.55;1.90;;;;;;;22.15;70.95;98167.53;4988131;28;20033;-64
2021/06/18 05:06:14;;;;;;;4.32;1.77;;;;;;;22.04;71.58;98170.09;4988041;28;20026;-64
2021/06/18 05:08:40;;;;;;;6.35;1.58;;;;;;;22.11;70.93;98166.03;4988773;28;20030;-64
2021/06/18 05:11:05;;;;;;;3.72;1.60;;;;;;;22.71;68.70;98156.13;5007520;28;20022;-64
2021/06/18 05:13:30;;;;;;;4.00;1.75;;;;;;;23.76;63.40;98169.31;5007698;28;20018;-64
2021/06/18 05:15:56;;;;;;;5.22;1.50;;;;;;;24.43;62.18;98164.75;5007300;28;20336;-64
2021/06/18 05:18:21;;;;;;;1.88;1.40;;;;;;;25.03;62.93;98160.50;5007324;28;20029;-64
2021/06/18 05:20:47;;;;;;;6.97;1.65;;;;;;;24.67;63.08;98163.59;5007249;28;20034;-64
2021/06/18 05:23:12;;;;;;;7.03;1.90;;;;;;;25.17;64.29;98170.97;5007317;28;20093;-64
2021/06/18 05:25:38;;;;;;;4.43;1.35;;;;;;;25.51;62.51;98182.44;5007322;28;20061;-64
2021/06/18 05:28:03;;;;;;;5.18;1.50;;;;;;;25.98;60.48;98194.47;5007152;28;20252;-64
2021/06/18 05:30:29;;;;;;;4.95;1.52;;;;;;;26.20;61.40;98202.38;5007129;28;20037;-64
2021/06/18 05:32:54;;;;;;;4.15;1.40;;;;;;;26.69;58.92;98194.28;5007059;28;20018;-64
2021/06/18 05:35:20;;;;;;;1.73;1.35;;;;;;;27.06;59.42;98192.59;5006918;28;20329;-64
2021/06/18 05:37:46;;;;;;;3.40;1.30;;;;;;;27.02;57.86;98199.28;5006973;28;20018;-64
2021/06/18 05:40:11;;;;;;;4.85;1.30;;;;;;;27.51;57.24;98204.53;4993942;28;20214;-64
2021/06/18 05:42:37;;;;;;;4.00;1.40;;;;;;;27.64;56.92;98196.97;4987402;28;20030;-64
2021/06/18 05:45:07;;;;;;;3.00;1.20;;;;;;;27.90;54.41;98203.47;4987371;28;20090;-64
2021/06/18 05:47:32;;;;;;;2.58;1.40;;;;;;;27.20;52.63;98200.28;4987289;28;20018;-64
2021/06/18 05:49:57;;;;;;;4.72;1.90;;;;;;;26.61;57.71;98202.19;4987272;28;20054;-64
2021/06/18 05:52:23;;;;;;;3.20;1.40;;;;;;;26.45;57.71;98207.28;4987212;28;20314;-64
2021/06/18 05:54:48;;;;;;;1.75;1.23;;;;;;;26.25;61.00;98205.50;4987111;28;20022;-64
2021/06/18 05:57:14;;;;;;;3.50;1.50;;;;;;;26.97;60.04;98215.94;4987047;28;20019;-64
2021/06/18 05:59:39;;;;;;;3.20;1.20;;;;;;;26.78;58.32;98215.03;4986944;28;20081;-64
2021/06/18 06:02:06;;;;;;;3.10;1.50;;;;;;;26.98;55.45;98214.06;4987032;28;20018;-64
2021/06/18 06:04:31;;;;;;;3.20;1.40;;;;;;;27.76;53.69;98224.69;4987234;28;20015;-64
2021/06/18 06:06:56;;;;;;;3.30;1.23;;;;;;;27.15;56.33;98224.19;4986957;28;20373;-64
2021/06/18 06:09:22;;;;;;;2.17;1.42;;;;;;;26.92;57.28;98222.72;4995555;28;20373;-64
2021/06/18 06:11:47;;;;;;;2.65;1.30;;;;;;;26.62;54.13;98214.72;5005391;28;20018;-64
2021/06/18 06:14:17;;;;;;;3.45;1.40;;;;;;;26.30;56.37;98214.06;5006212;28;20086;-64
2021/06/18 06:16:43;;;;;;;3.10;1.08;;;;;;;26.14;55.62;98208.31;5006192;28;20026;-64
2021/06/18 06:19:09;;;;;;;2.80;1.20;;;;;;;26.01;57.20;98215.78;5006246;28;20054;-64
2021/06/18 06:21:34;;;;;;;3.17;1.30;;;;;;;25.70;58.68;98214.88;5006185;28;20033;-64
2021/06/18 06:24:00;;;;;;;3.55;1.40;;;;;;;25.63;64.64;98218.25;5006127;28;20183;-64
2021/06/18 06:26:25;;;;;;;2.45;1.60;;;;;;;25.58;61.93;98223.16;5006130;28;20025;-64
2021/06/18 06:28:51;;;;;;;3.92;1.60;;;;;;;25.15;66.37;98232.19;5006256;28;20029;-64
2021/06/18 06:31:16;;;;;;;2.78;1.50;;;;;;;25.14;63.36;98227.78;5006035;28;20213;-64
2021/06/18 06:33:42;;;;;;;2.08;1.40;;;;;;;24.97;64.89;98224.81;5005870;28;20138;-64
2021/06/18 06:36:08;;;;;;;2.35;1.40;;;;;;;24.84;65.51;98230.34;5005920;28;20090;-64
2021/06/18 06:38:33;;;;;;;2.58;1.40;;;;;;;24.66;70.41;98237.28;5004491;28;20030;-64
2021/06/18 06:40:59;;;;;;;2.65;1.58;;;;;;;24.53;70.27;98241.06;4986379;28;20022;-64
2021/06/18 06:43:24;;;;;;;2.30;1.50;;;;;;;24.43;69.55;98243.63;4986303;28;20069;-64
2021/06/18 06:45:50;;;;;;;2.63;1.52;;;;;;;24.36;70.46;98241.59;4986298;28;20019;-64
2021/06/18 06:48:15;;;;;;;2.15;1.80;;;;;;;24.25;71.38;98247.81;4986181;28;20134;-64
2021/06/18 06:50:41;;;;;;;2.28;1.50;;;;;;;24.26;72.13;98260.28;4986148;28;20019;-64
2021/06/18 06:53:07;;;;;;;2.33;1.40;;;;;;;24.28;68.79;98263.72;4986403;28;20086;-64
2021/06/18 06:55:34;;;;;;;3.80;1.60;;;;;;;24.27;70.53;98255.78;4986024;28;20023;-64
2021/06/18 06:57:59;;;;;;;1.65;1.52;;;;;;;24.21;71.60;98262.50;4985917;28;20143;-64
2021/06/18 07:00:24;;;;;;;2.15;1.70;;;;;;;24.38;72.30;98267.38;4985799;28;20046;-64
2021/06/18 07:02:50;;;;;;;2.40;1.98;;;;;;;24.52;74.20;98267.09;4985900;28;20042;-64
2021/06/18 07:05:15;;;;;;;1.77;1.30;;;;;;;24.74;65.84;98261.72;4986146;28;20041;-64
2021/06/18 07:07:41;;;;;;;3.08;1.40;;;;;;;25.02;64.29;98255.75;4985825;28;20023;-64
2021/06/18 07:10:07;;;;;;;4.55;1.50;;;;;;;25.37;63.86;98266.28;4999221;28;20018;-64
2021/06/18 07:12:33;;;;;;;2.58;1.65;;;;;;;25.28;62.98;98265.19;5005217;28;20317;-64
2021/06/18 07:14:58;;;;;;;3.75;1.50;;;;;;;25.06;64.82;98265.28;5005080;28;20029;-64
2021/06/18 07:17:24;;;;;;;1.95;1.33;;;;;;;25.11;64.19;98271.16;5005367;28;20026;-64
2021/06/18 07:19:51;;;;;;;3.45;1.50;;;;;;;25.26;63.17;98269.88;5005071;28;20018;-64
2021/06/18 07:22:19;;;;;;;2.10;1.60;;;;;;;25.22;61.79;98273.78;5005045;28;20210;-64
2021/06/18 07:24:45;;;;;;;2.33;1.20;;;;;;;25.46;62.34;98262.81;5004824;28;20022;-64
2021/06/18 07:27:12;;;;;;;1.90;1.25;;;;;;;25.83;61.37;98263.19;5004907;28;20064;-64
2021/06/18 07:29:37;;;;;;;2.35;1.50;;;;;;;26.52;62.80;98267.81;5004989;28;20040;-64
2021/06/18 07:32:03;;;;;;;3.38;1.63;;;;;;;26.91;61.95;98265.09;5004885;28;20041;-64
2021/06/18 07:34:28;;;;;;;3.70;1.42;;;;;;;26.86;60.12;98269.22;5004752;28;20309;-64
2021/06/18 07:36:54;;;;;;;2.92;1.30;;;;;;;26.97;57.88;98264.56;5004849;28;20061;-64
2021/06/18 07:39:19;;;;;;;1.92;1.30;;;;;;;27.16;55.21;98263.72;4997937;28;20091;-64
2021/06/18 07:41:46;;;;;;;1.98;1.35;;;;;;;27.68;55.76;98270.56;4985286;28;20046;-64
2021/06/18 07:44:11;;;;;;;2.17;1.70;;;;;;;28.51;55.65;98275.03;4985272;28;20318;-64
2021/06/18 07:46:37;;;;;;;3.53;1.40;;;;;;;28.62;51.29;98269.44;4985193;28;20070;-64
2021/06/18 07:49:03;;;;;;;2.63;1.40;;;;;;;28.05;55.44;98274.19;4985195;28;20018;-64
2021/06/18 07:51:28;;;;;;;3.92;1.75;;;;;;;27.45;54.01;98264.59;4985177;28;20046;-64
2021/06/18 07:53:53;;;;;;;3.05;1.40;;;;;;;26.74;55.69;98263.06;4985057;28;20022;-64
2021/06/18 07:56:26;;;;;;;3.55;1.50;;;;;;;26.70;58.52;98266.22;4985167;28;20031;-64
2021/06/18 07:58:52;;;;;;;2.28;1.30;;;;;;;27.16;55.92;98259.16;4984961;28;20138;-64
2021/06/18 08:01:19;;;;;;;6.40;1.98;;;;;;;27.54;58.07;98263.75;4984874;28;20073;-64
2021/06/18 08:03:45;;;;;;;1.73;1.42;;;;;;;27.98;57.92;98263.13;4985272;28;20082;-64
2021/06/18 08:06:11;;;;;;;3.17;1.25;;;;;;;29.13;52.57;98264.31;4985306;28;20030;-64
2021/06/18 08:08:37;;;;;;;2.30;1.40;;;;;;;30.00;50.78;98261.69;4986095;28;20023;-64
2021/06/18 08:11:02;;;;;;;1.75;1.10;;;;;;;30.01;47.97;98257.94;4984986;28;20038;-64
2021/06/18 08:13:28;;;;;;;3.90;1.20;;;;;;;29.08;53.15;98261.19;4984925;28;20027;-64
2021/06/18 08:15:53;;;;;;;3.70;1.77;;;;;;;28.06;50.65;98257.81;4985123;28;20027;-64
2021/06/18 08:18:18;;;;;;;1.88;1.20;;;;;;;27.75;51.44;98260.88;4984848;28;20102;-64
2021/06/18 08:20:44;;;;;;;2.88;1.40;;;;;;;27.57;51.56;98262.59;4984873;28;20023;-64
2021/06/18 08:23:10;;;;;;;4.18;1.10;;;;;;;27.19;53.16;98258.03;4984901;28;20072;-64
2021/06/18 08:25:36;;;;;;;2.63;1.20;;;;;;;27.22;55.59;98268.56;4984847;28;20034;-64
2021/06/18 08:28:01;;;;;;;4.72;1.33;;;;;;;27.34;58.36;98266.59;4985053;28;20023;-64
2021/06/18 08:30:27;;;;;;;2.55;1.58;;;;;;;27.44;54.32;98267.44;4984791;28;20336;-64
2021/06/18 08:32:53;;;;;;;3.50;1.40;;;;;;;27.49;53.24;98268.72;4984798;28;20019;-64
2021/06/18 08:35:20;;;;;;;2.47;1.40;;;;;;;27.55;53.47;98270.00;4985864;28;20044;-64
2021/06/18 08:37:46;;;;;;;4.78;1.45;;;;;;;27.33;58.57;98273.00;4988840;28;20025;-64
2021/06/18 08:40:12;;;;;;;3.05;1.38;;;;;;;27.08;56.40;98277.06;5005971;28;20026;-64
2021/06/18 08:42:38;;;;;;;3.90;1.40;;;;;;;27.35;54.83;98268.28;5007738;28;20037;-64
2021/06/18 08:45:05;;;;;;;1.33;1.10;;;;;;;27.12;55.51;98267.69;5007962;28;20041;-64
2021/06/18 08:47:30;;;;;;;2.92;1.17;;;;;;;27.10;55.64;98266.97;5007898;28;20022;-64
2021/06/18 08:49:56;;;;;;;2.38;1.30;;;;;;;27.29;57.25;98269.72;5007903;28;20022;-64
2021/06/18 08:52:22;;;;;;;2.08;1.33;;;;;;;27.39;56.56;98269.75;5007781;28;20026;-64
2021/06/18 08:54:50;;;;;;;2.72;1.35;;;;;;;27.30;57.58;98270.59;5007742;28;20098;-64
2021/06/18 08:57:19;;;;;;;2.42;1.50;;;;;;;27.40;56.54;98277.69;5007682;28;20228;-64
2021/06/18 08:59:45;;;;;;;2.40;1.23;;;;;;;27.95;55.13;98279.66;5007495;28;20046;-64
2021/06/18 09:02:11;;;;;;;2.63;1.38;;;;;;;27.87;55.74;98281.38;5007705;28;20093;-64
2021/06/18 09:05:05;;;;;;;3.83;1.52;;;;;;;27.88;53.36;98280.38;5007597;28;20022;-64
2021/06/18 09:08:00;;;;;;;2.47;1.38;;;;;;;28.13;54.11;98279.75;5007558;28;20018;-64
2021/06/18 09:10:40;;;;;;;2.83;1.40;;;;;;;27.71;53.23;98276.50;5004415;28;20014;-64
2021/06/18 09:13:22;;;;;;;1.83;1.33;;;;;;;28.04;53.00;98289.59;5007207;28;20053;-64
2021/06/18 09:15:51;;;;;;;1.92;1.30;;;;;;;27.64;56.64;98288.91;5007414;28;20030;-64
2021/06/18 09:18:22;;;;;;;3.05;1.40;;;;;;;27.49;56.35;98306.56;5007604;28;20221;-64
2021/06/18 09:20:50;;;;;;;3.67;1.42;;;;;;;27.27;56.76;98306.84;5007310;28;20230;-64
2021/06/18 09:23:27;;;;;;;5.05;1.65;;;;;;;26.98;59.32;98324.81;5007315;28;20069;-64
2021/06/18 09:26:17;;;;;;;5.28;1.83;;;;;;;26.58;61.59;98332.06;5007266;28;20018;-64
2021/06/18 09:29:04;;;;;;;4.63;1.80;;;;;;;26.48;60.66;98314.97;5007182;28;20030;-64
2021/06/18 09:31:45;;;;;;;9.07;2.08;;;;;;;26.29;62.63;98318.44;5007112;28;20041;-64
2021/06/18 09:34:12;;;;;;;5.35;1.52;;;;;;;26.44;62.60;98316.22;5007018;28;20022;-64
2021/06/18 09:36:39;;;;;;;2.30;1.33;;;;;;;26.69;62.89;98303.16;5007317;28;20041;-64
2021/06/18 09:39:07;;;;;;;1.73;1.20;;;;;;;26.63;61.60;98286.63;4996175;28;20023;-64
2021/06/18 09:41:46;;;;;;;2.50;1.40;;;;;;;26.54;63.18;98276.66;4987513;28;20131;-64
2021/06/18 09:44:18;;;;;;;2.42;1.45;;;;;;;26.68;58.95;98270.88;4987446;28;20019;-64
2021/06/18 09:46:50;;;;;;;;;;;;;;;26.75;56.92;98259.41;4987736;28;20081;-64
2021/06/18 09:49:27;;;;;;;2.75;1.40;;;;;;;26.70;56.35;98241.91;4987539;28;19906;-64
2021/06/18 09:52:10;;;;;;;2.75;1.52;;;;;;;26.60;58.32;98227.47;4987295;28;20049;-64
2021/06/18 09:54:41;;;;;;;6.90;1.80;;;;;;;26.58;61.37;98224.06;4987405;28;20069;-64
2021/06/18 09:57:10;;;;;;;3.30;1.40;;;;;;;26.71;60.83;98228.28;4987415;28;20022;-64
2021/06/18 09:59:49;;;;;;;3.50;1.50;;;;;;;26.78;59.55;98236.66;4986926;28;20046;-64
2021/06/18 10:02:15;;;;;;;3.05;1.60;;;;;;;26.80;59.82;98240.06;4987119;28;20030;-64
2021/06/18 10:04:41;;;;;;;3.90;1.60;;;;;;;27.67;56.46;98253.47;4987052;28;20354;-64
2021/06/18 10:07:10;;;;;;;3.45;1.42;;;;;;;28.37;52.80;98264.69;4987040;28;20034;-64
2021/06/18 10:09:37;;;;;;;2.40;1.30;;;;;;;28.20;54.86;98273.59;5001805;28;20022;-64
2021/06/18 10:12:03;;;;;;;3.15;1.55;;;;;;;27.82;53.43;98262.84;5006339;28;20022;-64
2021/06/18 10:14:29;;;;;;;5.72;1.90;;;;;;;28.36;53.42;98252.16;5006225;28;20352;-64
2021/06/18 10:16:54;;;;;;;4.32;1.48;;;;;;;28.88;50.10;98242.47;5006256;28;20029;-64
2021/06/18 10:19:20;;;;;;;3.85;1.27;;;;;;;29.54;47.14;98245.72;5006282;28;20274;-64
2021/06/18 10:22:04;;;;;;;5.50;1.90;;;;;;;30.22;47.75;98253.91;5006208;28;20081;-64
2021/06/18 10:24:54;;;;;;;2.08;1.52;;;;;;;30.99;46.81;98253.72;5006212;28;20310;-64
2021/06/18 10:27:28;;;;;;;2.53;1.70;;;;;;;31.54;43.03;98249.41;5005817;28;20055;-65
2021/06/18 10:29:53;;;;;;;3.90;1.40;;;;;;;31.99;44.34;98257.94;5006324;28;20054;-65
2021/06/18 10:32:28;;;;;;;2.80;1.50;;;;;;;31.85;41.97;98253.19;5005998;28;20084;-65
2021/06/18 10:34:58;;;;;;;3.45;1.33;;;;;;;31.52;43.28;98248.75;5005839;28;20026;-65
2021/06/18 10:37:29;;;;;;;3.58;1.50;;;;;;;31.25;43.40;98248.19;5006160;28;20305;-65
2021/06/18 10:40:09;;;;;;;3.90;1.53;;;;;;;31.22;42.34;98243.06;5005382;28;20018;-65
2021/06/18 10:42:34;;;;;;;4.35;1.42;;;;;;;31.73;39.99;98249.06;5005583;28;20093;-65
2021/06/18 10:45:00;;;;;;;4.90;1.65;;;;;;;31.54;38.27;98241.25;5005765;28;20033;-64
2021/06/18 10:47:29;;;;;;;3.08;1.67;;;;;;;31.75;43.17;98241.59;5005636;28;20029;-65
2021/06/18 10:49:55;;;;;;;3.10;1.30;;;;;;;31.89;40.94;98243.63;5005604;28;20029;-65
2021/06/18 10:52:23;;;;;;;5.05;1.63;;;;;;;31.86;38.42;98243.97;5005597;28;20089;-65
2021/06/18 10:54:55;;;;;;;4.18;1.35;;;;;;;31.88;41.06;98243.81;5005491;28;20022;-65
2021/06/18 10:57:23;;;;;;;4.70;1.75;;;;;;;31.92;41.06;98237.84;5005415;28;20348;-65
2021/06/18 10:59:49;;;;;;;3.28;1.60;;;;;;;31.85;39.65;98242.28;5004933;28;20069;-65
2021/06/18 11:02:21;;;;;;;5.13;1.48;;;;;;;31.71;41.12;98233.94;5005398;28;20074;-65
2021/06/18 11:04:52;;;;;;;3.20;1.45;;;;;;;31.69;41.52;98228.66;5005596;28;20249;-65
2021/06/18 11:07:19;;;;;;;5.03;1.67;;;;;;;31.38;43.18;98237.69;5005632;28;20030;-65
2021/06/18 11:09:45;;;;;;;8.52;1.70;;;;;;;31.24;44.55;98233.72;4987226;28;20336;-65
2021/06/18 11:12:23;;;;;;;5.75;1.98;;;;;;;31.64;44.93;98232.91;4985845;28;20097;-65
2021/06/18 11:14:58;;;;;;;4.30;1.60;;;;;;;31.52;43.91;98245.16;4985713;28;20090;-65
2021/06/18 11:17:54;;;;;;;3.50;1.60;;;;;;;31.90;46.34;98241.78;4985669;28;20023;-65
2021/06/18 11:20:46;;;;;;;3.80;1.65;;;;;;;31.93;43.44;98242.28;4985697;28;20030;-65
2021/06/18 11:23:18;;;;;;;3.00;1.50;;;;;;;32.23;43.94;98236.09;4985586;28;20023;-65
2021/06/18 11:26:01;;;;;;;3.75;1.65;;;;;;;31.87;43.01;98239.38;4986118;28;20306;-64
2021/06/18 11:28:32;;;;;;;4.20;1.67;;;;;;;31.32;45.23;98233.78;4997780;28;20046;-64
2021/06/18 11:31:02;;;;;;;3.85;1.73;;;;;;;31.71;42.62;98239.38;4985510;28;20030;-64
2021/06/18 11:33:46;;;;;;;2.78;1.90;;;;;;;31.93;42.87;98234.13;4985389;28;20029;-64
2021/06/18 11:36:17;;;;;;;4.20;1.80;;;;;;;32.24;45.33;98232.31;4985351;28;20023;-64
2021/06/18 11:38:45;;;;;;;3.30;1.60;;;;;;;32.16;43.20;98232.38;4985354;28;20070;-64
2021/06/18 11:41:12;;;;;;;3.78;1.90;;;;;;;32.06;44.99;98234.44;4985350;28;20034;-64